createdAt,value
2022-10-14T00:01:52.613Z,52.7
2022-10-14T00:07:10.838Z,51.8
2022-10-14T00:12:29.416Z,52
2022-10-14T00:17:47.308Z,52.2
2022-10-14T00:23:05.802Z,51.7
2022-10-14T00:28:24.446Z,52.5
2022-10-14T00:33:42.657Z,52.2
2022-10-14T00:39:01.156Z,52.5
2022-10-14T00:44:19.388Z,52.6
2022-10-14T00:49:38.144Z,52.4
2022-10-14T00:54:56.640Z,52.5
2022-10-14T01:00:15.436Z,51.7
2022-10-14T01:05:34.168Z,52.3
2022-10-14T01:10:52.669Z,52.4
2022-10-14T01:16:11.186Z,51.6
2022-10-14T01:27:01.219Z,51.9
2022-10-14T01:32:20.929Z,52.6
2022-10-14T01:37:39.186Z,51.8
2022-10-14T01:42:57.670Z,52.7
2022-10-14T01:48:15.894Z,51.8
2022-10-14T01:53:34.370Z,52.6
2022-10-14T01:58:53.136Z,52
2022-10-14T02:04:11.644Z,51.9
2022-10-14T02:09:30.121Z,51.3
2022-10-14T02:14:48.318Z,52.6
2022-10-14T02:20:07.131Z,52.5
2022-10-14T02:25:25.872Z,51.9
2022-10-14T02:30:44.356Z,51.8
2022-10-14T02:36:03.147Z,52.6
2022-10-14T02:41:21.060Z,52
2022-10-14T02:46:39.263Z,52.2
2022-10-14T02:51:57.778Z,52.7
2022-10-14T02:57:15.971Z,52.9
2022-10-14T03:02:34.203Z,52.4
2022-10-14T03:07:52.155Z,52.8
2022-10-14T03:13:10.621Z,52.7
2022-10-14T03:18:29.113Z,52.3
2022-10-14T03:23:47.615Z,52.7
2022-10-14T03:29:05.830Z,52.2
2022-10-14T03:34:24.420Z,53
2022-10-14T03:39:42.643Z,53.1
2022-10-14T03:45:01.396Z,52.2
2022-10-14T03:50:19.897Z,51.6
2022-10-14T03:55:38.416Z,51.6
2022-10-14T04:00:56.328Z,52.3
2022-10-14T04:06:15.092Z,52.4
2022-10-14T04:11:33.606Z,51.6
2022-10-14T04:16:52.350Z,51.7
2022-10-14T04:22:10.838Z,52.4
2022-10-14T04:27:29.086Z,52.5
2022-10-14T04:32:47.257Z,52.6
2022-10-14T04:38:06.036Z,52.5
2022-10-14T04:43:24.841Z,52
2022-10-14T04:48:43.294Z,52.2
2022-10-14T04:54:02.074Z,47.1
2022-10-14T04:59:20.311Z,46.4
2022-10-14T05:04:38.779Z,45.3
2022-10-14T05:09:58.009Z,48
2022-10-14T05:15:16.517Z,48.7
2022-10-14T05:20:34.992Z,49
2022-10-14T05:25:53.747Z,49.3
2022-10-14T05:31:12.625Z,50.1
2022-10-14T05:36:31.374Z,50.3
2022-10-14T05:41:49.868Z,50.4
2022-10-14T05:47:08.664Z,49.8
2022-10-14T05:52:26.573Z,50.5
2022-10-14T05:57:45.056Z,49.8
2022-10-14T06:03:03.559Z,50.3
2022-10-14T06:08:21.738Z,50.8
2022-10-14T06:13:40.234Z,50
2022-10-14T06:18:59.024Z,50
2022-10-14T06:24:17.476Z,51
2022-10-14T06:29:36.255Z,50
2022-10-14T06:34:54.774Z,50.7
2022-10-14T06:40:13.514Z,50.2
2022-10-14T06:45:32.288Z,50
2022-10-14T06:50:50.535Z,50.4
2022-10-14T06:56:09.008Z,49.8
2022-10-14T07:01:27.432Z,49.9
2022-10-14T07:06:45.950Z,50.1
2022-10-14T07:12:04.406Z,50.8
2022-10-14T07:17:24.447Z,49.7
2022-10-14T07:22:42.542Z,49.8
2022-10-14T07:28:00.713Z,49.8
2022-10-14T07:33:18.643Z,49.6
2022-10-14T07:38:37.437Z,49.6
2022-10-14T07:43:55.904Z,50.1
2022-10-14T07:49:14.385Z,50.3
2022-10-14T07:54:32.624Z,50.2
2022-10-14T07:59:51.085Z,49.9
2022-10-14T08:05:39.314Z,49.3
2022-10-14T08:10:57.636Z,49.2
2022-10-14T08:16:16.085Z,49.7
2022-10-14T08:21:34.565Z,49.1
2022-10-14T08:26:53.076Z,49.1
2022-10-14T08:32:11.540Z,49.7
2022-10-14T08:37:30.302Z,49.1
2022-10-14T08:42:48.632Z,48.9
2022-10-14T08:48:07.082Z,49.7
2022-10-14T08:53:25.282Z,49.3
2022-10-14T08:58:43.519Z,49.1
2022-10-14T09:04:01.430Z,48.9
2022-10-14T09:09:19.615Z,49
2022-10-14T09:14:38.130Z,49.3
2022-10-14T09:19:56.305Z,48.5
2022-10-14T09:25:14.786Z,49.5
2022-10-14T09:30:33.297Z,48.7
2022-10-14T09:35:51.920Z,48.4
2022-10-14T09:41:10.656Z,49
2022-10-14T09:46:28.884Z,49.6
2022-10-14T09:51:47.351Z,49.6
2022-10-14T09:57:06.116Z,49
2022-10-14T10:02:24.345Z,48.7
2022-10-14T10:07:42.796Z,48.7
2022-10-14T10:13:01.297Z,48.7
2022-10-14T10:18:19.808Z,49.4
2022-10-14T10:23:37.993Z,48.8
2022-10-14T10:28:56.386Z,48.8
2022-10-14T10:34:14.441Z,48.5
2022-10-14T10:39:32.621Z,48.8
2022-10-14T10:44:51.154Z,49.3
2022-10-14T10:50:09.440Z,48.8
2022-10-14T10:55:27.619Z,49.3
2022-10-14T11:00:45.540Z,48.8
2022-10-14T11:06:04.090Z,49.3
2022-10-14T11:11:22.265Z,49.3
2022-10-14T11:16:40.464Z,48.6
2022-10-14T11:21:58.712Z,48.7
2022-10-14T11:27:25.080Z,48.5
2022-10-14T11:32:43.726Z,49.2
2022-10-14T11:38:02.234Z,48.7
2022-10-14T11:43:20.408Z,49
2022-10-14T11:48:39.177Z,48.6
2022-10-14T11:53:57.956Z,48.9
2022-10-14T11:59:16.132Z,48.2
2022-10-14T13:13:38.615Z,48.2
2022-10-14T13:18:57.060Z,48.4
2022-10-14T13:24:15.742Z,48.6
2022-10-14T13:29:33.976Z,48.8
2022-10-14T13:34:52.723Z,48.5
2022-10-14T13:39:55.322Z,48.8
2022-10-14T13:45:13.830Z,48
2022-10-14T13:50:31.723Z,47.9
2022-10-14T13:55:55.155Z,48.7
2022-10-14T14:01:13.880Z,47.8
2022-10-14T14:07:27.634Z,48.3
2022-10-14T14:13:17.034Z,48
2022-10-14T14:19:09.859Z,47.5
2022-10-14T14:24:28.678Z,47.7
2022-10-14T14:29:47.449Z,47.5
2022-10-14T14:35:05.973Z,47.4
2022-10-14T14:40:24.427Z,47.9
2022-10-14T14:45:43.191Z,48.6
2022-10-14T14:51:01.729Z,48.2
2022-10-14T14:56:20.460Z,48.8
2022-10-14T15:01:38.938Z,49.2
2022-10-14T15:06:57.716Z,48
2022-10-14T15:12:16.883Z,48.9
2022-10-14T15:17:35.170Z,48.6
2022-10-14T15:22:53.384Z,49.3
2022-10-14T15:28:12.116Z,47.6
2022-10-14T15:33:30.594Z,48.1
2022-10-14T15:38:49.394Z,48.8
2022-10-14T15:44:08.127Z,48.7
2022-10-14T15:49:26.610Z,48.1
2022-10-14T15:54:45.168Z,48.2
2022-10-14T16:00:03.614Z,48.7
2022-10-14T16:05:21.692Z,49.2
2022-10-14T16:10:39.909Z,48.2
2022-10-14T16:15:57.820Z,49.2
2022-10-14T16:21:16.580Z,49.2
2022-10-14T16:26:35.238Z,49.1
2022-10-14T16:31:53.696Z,48.6
2022-10-14T16:37:11.908Z,48.7
2022-10-14T16:42:30.221Z,49.4
2022-10-14T16:47:48.747Z,49.1
2022-10-14T16:53:07.224Z,49.3
2022-10-14T16:58:25.173Z,49.5
2022-10-14T17:03:43.627Z,49.5
2022-10-14T17:09:02.101Z,48.9
2022-10-14T17:14:05.255Z,48.7
2022-10-14T17:19:23.995Z,49.5
2022-10-14T17:24:26.277Z,49.6
2022-10-14T17:29:45.065Z,49.8
2022-10-14T17:35:03.525Z,50.2
2022-10-14T17:40:21.998Z,48.6
2022-10-14T17:45:40.350Z,48.5
2022-10-14T17:50:58.823Z,49.2
2022-10-14T17:56:17.598Z,49.2
2022-10-14T18:02:08.370Z,48.4
2022-10-14T18:07:26.971Z,48.2
2022-10-14T18:12:45.747Z,45.4
2022-10-14T18:18:04.093Z,47.3
2022-10-14T18:23:22.786Z,48.1
2022-10-14T18:28:41.152Z,48.1
2022-10-14T18:33:59.497Z,49
2022-10-14T18:39:17.931Z,49
2022-10-14T18:44:36.126Z,49
2022-10-14T18:49:54.560Z,49.6
2022-10-14T18:55:13.020Z,49.7
2022-10-14T19:00:16.169Z,49.1
2022-10-14T19:05:34.378Z,49.9
2022-10-14T19:10:52.846Z,49.8
2022-10-14T19:16:10.781Z,48.9
2022-10-14T19:21:28.992Z,50.4
2022-10-14T19:26:46.905Z,49.3
2022-10-14T19:32:05.391Z,50.1
2022-10-14T19:37:25.543Z,50
2022-10-14T19:42:44.377Z,49.8
2022-10-14T19:48:02.858Z,50
2022-10-14T19:53:21.488Z,50.6
2022-10-14T19:58:45.308Z,50.2
2022-10-14T20:04:03.521Z,50.1
2022-10-14T20:09:21.754Z,49.6
2022-10-14T20:14:40.257Z,50.2
2022-10-14T20:19:58.714Z,50.9
2022-10-14T20:25:17.564Z,50.6
2022-10-14T20:30:36.297Z,51
2022-10-14T20:35:55.065Z,50.2
2022-10-14T20:41:13.457Z,50.3
2022-10-14T20:46:31.690Z,50.3
2022-10-14T20:51:50.437Z,51
2022-10-14T20:57:08.935Z,50.5
2022-10-14T21:02:27.385Z,50.2
2022-10-14T21:07:46.127Z,51.2
2022-10-14T21:13:04.644Z,50.5
2022-10-14T21:18:24.511Z,51.1
2022-10-14T21:23:42.956Z,51.3
2022-10-14T21:29:01.931Z,51.3
2022-10-14T21:34:20.793Z,51.3
2022-10-14T21:39:39.015Z,50.6
2022-10-14T21:44:57.821Z,51.5
2022-10-14T21:50:16.283Z,51.1
2022-10-14T21:55:34.491Z,50.8
2022-10-14T22:00:53.322Z,50.7
2022-10-14T22:06:12.086Z,50.8
2022-10-14T22:11:30.851Z,50.8
2022-10-14T22:16:49.834Z,50.7
2022-10-14T22:22:08.289Z,51.7
2022-10-14T22:27:26.855Z,51.7
2022-10-14T22:32:45.634Z,51.6
2022-10-14T22:38:04.368Z,50.9
2022-10-14T22:43:22.849Z,51.1
2022-10-14T22:48:41.082Z,51.8
2022-10-14T22:53:59.838Z,51
2022-10-14T22:59:18.312Z,51.1
2022-10-14T23:04:37.455Z,52
2022-10-14T23:09:55.790Z,52.3
2022-10-14T23:15:14.283Z,51.3
2022-10-14T23:20:32.534Z,52.5
2022-10-14T23:25:51.259Z,52.6
2022-10-14T23:31:09.480Z,52.3
2022-10-14T23:36:28.048Z,52.6
2022-10-14T23:41:46.240Z,52.5
2022-10-14T23:47:05.001Z,52
2022-10-14T23:52:23.507Z,52.7
2022-10-14T23:57:41.973Z,52.2
